Terminal Aerodrome Forecast
Issued by NWS

Home | Current Version | Previous Version | Graphics & Text | Print | Product List | Glossary On
Versions: 1 2 3 4 5 6 7 8 9 10 11 12 13 14 15 16 17
000
FTUS43 KICT 010100 AAA
TAFSLN
TAF AMD
KSLN 010145Z 0102/0124 19021G30KT P6SM VCTS SCT070CB BKN100
      TEMPO 0102/0106 VRB25G40KT 1SM +TSRA OVC035CB
     FM010600 02013KT P6SM VCTS SCT040CB BKN080
     FM010800 05009KT P6SM SCT040 BKN080
     FM011300 36012KT P6SM BKN120=

USA.gov is the U.S. government's official web portal to all federal, state and local government web resources and services.